Alexandria, LA

8:18 AM CST on December 03, 2016 (GMT -0600)
Downs Lane | | Change Station
Active Advisory: Flash Flood Watch

Elev 69 ft 31.28 °N, 92.57 °W | Updated 1 second ago

Light Rain
Light Rain
48.0 °F
Feels Like 45 °F
N
6.0
Wind Variable Wind from NW

Today
High -- | Low -- °F
--% Chance of Precip.
Yesterday
High -- | Low -- °F
Precip. -- in
Pressure 30.08 in
Visibility 8.0 miles
Clouds Overcast 2800 ft
Windchill 45 °F
Dew Point 46 °F
Humidity 93%
Rainfall 0.11 in
Snow Depth Not available.
6:53 AM 5:07 PM
Waxing Crescent, 15% visible
SPECI KAEX 031400Z 08014G22KT 8SM -RA OVC028 09/07 A3008 RMK AO2 P0000 T00890072
Pressure 30.08 in
Visibility 8.0 miles
Clouds Overcast 2800 ft
Windchill 45 °F
Dew Point 46 °F
Humidity 93%
Rainfall 0.11 in
Snow Depth Not available.
6:53 AM 5:07 PM
Waxing Crescent, 15% visible
SPECI KAEX 031400Z 08014G22KT 8SM -RA OVC028 09/07 A3008 RMK AO2 P0000 T00890072

10-Day Weather Forecast

Almanac

Astronomy

Dec. 03, 2016 Rise Set
Actual Time
Civil Twilight
Nautical Twilight
Astronomical Twilight
Moon
Length of Visible Light
Length of Day
Tomorrow will be .
, % of the Moon is Illuminated

Today's Extremes

State Highs State Lows

Community

WunderPhotos

Upload Photos

1,955,446 photos uploaded!

WunderBlog® & News

Nearby

Air Quality

  Air Quality AQ Index Pollutant
Not available.

Snow Depth

Station Depth Elevation

Earthquake Activity

City Distance Mag. Time & Date
Minimum magnitude displayed is 2.5.

Coastal Water Temperatures

Place Temperature

Stations

Nearby Weather Stations

Station Location Temp. Windchill Dew Point Humidity Wind Precip. Elev Updated Type
                   

Watches & Warnings

Flash Flood Watch
Issued: 3:22 AM CST Dec. 3, 2016 – National Weather Service

... Flash Flood Watch in effect through Monday afternoon...

The National Weather Service in Lake Charles has issued a

* Flash Flood Watch for portions of Louisiana and southeast
Texas... including the following areas... in Louisiana... Allen...
   Beauregard... Calcasieu... Rapides and Vernon. In southeast
Texas... Hardin... Jefferson... northern Jasper... northern
Newton... Orange... southern Jasper... southern Newton and Tyler.

* Through Monday afternoon

* 5 to 8 inches of rainfall is possible in the watch area through
Monday afternoon. Locally higher amounts are possible.

* Impacts include dangerous and potentially life threatening
flash flooding as well as elevated levels on area rivers and
streams.

Precautionary/preparedness actions...

A Flash Flood Watch means that conditions may develop that lead
to flash flooding. Flash flooding is a very dangerous situation.

You should monitor later forecasts and be prepared to take action
should flash flood warnings be issued.